sensor_id;sensor_type;location;lat;lon;timestamp;P1;durP1;ratioP1;P2;durP2;ratioP2
28774;SDS011;15926;51.348;6.596;2023-03-03T00:01:36;111.10;;;40.00;;
28774;SDS011;15926;51.348;6.596;2023-03-03T00:04:02;119.45;;;40.53;;
28774;SDS011;15926;51.348;6.596;2023-03-03T00:06:28;119.20;;;39.88;;
28774;SDS011;15926;51.348;6.596;2023-03-03T00:08:54;119.03;;;40.92;;
28774;SDS011;15926;51.348;6.596;2023-03-03T00:11:21;114.90;;;40.00;;
28774;SDS011;15926;51.348;6.596;2023-03-03T00:13:51;121.15;;;38.13;;
28774;SDS011;15926;51.348;6.596;2023-03-03T00:16:27;117.90;;;40.55;;
28774;SDS011;15926;51.348;6.596;2023-03-03T00:18:54;114.80;;;39.83;;
28774;SDS011;15926;51.348;6.596;2023-03-03T00:21:30;108.68;;;38.45;;
28774;SDS011;15926;51.348;6.596;2023-03-03T00:23:58;118.85;;;41.70;;
28774;SDS011;15926;51.348;6.596;2023-03-03T00:26:30;110.25;;;39.50;;
28774;SDS011;15926;51.348;6.596;2023-03-03T00:29:00;112.78;;;37.15;;
28774;SDS011;15926;51.348;6.596;2023-03-03T00:31:33;115.70;;;37.83;;
28774;SDS011;15926;51.348;6.596;2023-03-03T00:34:03;118.43;;;40.55;;
28774;SDS011;15926;51.348;6.596;2023-03-03T00:36:36;111.90;;;35.53;;
28774;SDS011;15926;51.348;6.596;2023-03-03T00:41:38;107.60;;;33.83;;
28774;SDS011;15926;51.348;6.596;2023-03-03T00:46:50;107.43;;;35.53;;
28774;SDS011;15926;51.348;6.596;2023-03-03T00:49:20;105.57;;;35.10;;
28774;SDS011;15926;51.348;6.596;2023-03-03T00:51:48;110.65;;;36.88;;
28774;SDS011;15926;51.348;6.596;2023-03-03T00:54:14;106.38;;;36.13;;
28774;SDS011;15926;51.348;6.596;2023-03-03T00:56:40;127.30;;;37.65;;
28774;SDS011;15926;51.348;6.596;2023-03-03T00:59:06;102.65;;;35.47;;
28774;SDS011;15926;51.348;6.596;2023-03-03T01:01:32;96.90;;;35.45;;
28774;SDS011;15926;51.348;6.596;2023-03-03T01:03:58;99.13;;;32.75;;
28774;SDS011;15926;51.348;6.596;2023-03-03T01:06:24;101.07;;;34.75;;
28774;SDS011;15926;51.348;6.596;2023-03-03T01:08:50;95.30;;;32.78;;
28774;SDS011;15926;51.348;6.596;2023-03-03T01:11:23;96.55;;;32.92;;
28774;SDS011;15926;51.348;6.596;2023-03-03T01:13:50;89.90;;;31.02;;
28774;SDS011;15926;51.348;6.596;2023-03-03T01:16:17;90.13;;;33.67;;
28774;SDS011;15926;51.348;6.596;2023-03-03T01:18:43;89.72;;;33.53;;
28774;SDS011;15926;51.348;6.596;2023-03-03T01:21:09;83.03;;;31.10;;
28774;SDS011;15926;51.348;6.596;2023-03-03T01:23:36;84.90;;;31.25;;
28774;SDS011;15926;51.348;6.596;2023-03-03T01:26:02;85.05;;;31.55;;
28774;SDS011;15926;51.348;6.596;2023-03-03T01:28:29;87.07;;;31.88;;
28774;SDS011;15926;51.348;6.596;2023-03-03T01:30:59;83.68;;;31.58;;
28774;SDS011;15926;51.348;6.596;2023-03-03T01:33:26;88.65;;;32.25;;
28774;SDS011;15926;51.348;6.596;2023-03-03T01:35:52;89.07;;;32.92;;
28774;SDS011;15926;51.348;6.596;2023-03-03T01:38:18;84.22;;;31.42;;
28774;SDS011;15926;51.348;6.596;2023-03-03T01:40:50;84.10;;;30.95;;
28774;SDS011;15926;51.348;6.596;2023-03-03T01:43:16;74.40;;;28.65;;
28774;SDS011;15926;51.348;6.596;2023-03-03T01:48:15;70.18;;;26.90;;
28774;SDS011;15926;51.348;6.596;2023-03-03T01:53:28;74.50;;;27.25;;
28774;SDS011;15926;51.348;6.596;2023-03-03T01:55:55;61.83;;;24.92;;
28774;SDS011;15926;51.348;6.596;2023-03-03T01:58:24;71.43;;;27.23;;
28774;SDS011;15926;51.348;6.596;2023-03-03T02:00:52;68.57;;;25.45;;
28774;SDS011;15926;51.348;6.596;2023-03-03T02:03:19;67.95;;;25.73;;
28774;SDS011;15926;51.348;6.596;2023-03-03T02:05:47;62.33;;;22.60;;
28774;SDS011;15926;51.348;6.596;2023-03-03T02:08:14;59.22;;;24.58;;
28774;SDS011;15926;51.348;6.596;2023-03-03T02:10:41;61.47;;;24.08;;
28774;SDS011;15926;51.348;6.596;2023-03-03T02:13:08;62.20;;;23.55;;
28774;SDS011;15926;51.348;6.596;2023-03-03T02:15:34;60.75;;;24.63;;
28774;SDS011;15926;51.348;6.596;2023-03-03T02:18:02;69.65;;;25.85;;
28774;SDS011;15926;51.348;6.596;2023-03-03T02:23:28;60.10;;;24.05;;
28774;SDS011;15926;51.348;6.596;2023-03-03T02:28:32;63.88;;;24.73;;
28774;SDS011;15926;51.348;6.596;2023-03-03T02:30:59;70.18;;;26.58;;
28774;SDS011;15926;51.348;6.596;2023-03-03T02:33:25;69.13;;;27.58;;
28774;SDS011;15926;51.348;6.596;2023-03-03T02:35:52;62.88;;;24.98;;
28774;SDS011;15926;51.348;6.596;2023-03-03T02:38:20;65.68;;;24.67;;
28774;SDS011;15926;51.348;6.596;2023-03-03T02:41:23;67.88;;;25.35;;
28774;SDS011;15926;51.348;6.596;2023-03-03T02:43:42;62.35;;;24.55;;
28774;SDS011;15926;51.348;6.596;2023-03-03T02:46:11;74.45;;;26.67;;
28774;SDS011;15926;51.348;6.596;2023-03-03T02:48:37;65.53;;;25.45;;
28774;SDS011;15926;51.348;6.596;2023-03-03T02:51:03;82.38;;;29.25;;
28774;SDS011;15926;51.348;6.596;2023-03-03T02:53:29;81.03;;;29.23;;
28774;SDS011;15926;51.348;6.596;2023-03-03T02:55:55;99.53;;;33.00;;
28774;SDS011;15926;51.348;6.596;2023-03-03T02:58:21;95.90;;;33.13;;
28774;SDS011;15926;51.348;6.596;2023-03-03T03:00:47;100.25;;;32.40;;
28774;SDS011;15926;51.348;6.596;2023-03-03T03:03:13;101.88;;;33.67;;
28774;SDS011;15926;51.348;6.596;2023-03-03T03:05:39;95.28;;;32.80;;
28774;SDS011;15926;51.348;6.596;2023-03-03T03:08:05;96.38;;;32.83;;
28774;SDS011;15926;51.348;6.596;2023-03-03T03:10:31;95.85;;;33.63;;
28774;SDS011;15926;51.348;6.596;2023-03-03T03:12:57;92.88;;;32.72;;
28774;SDS011;15926;51.348;6.596;2023-03-03T03:15:23;111.25;;;36.50;;
28774;SDS011;15926;51.348;6.596;2023-03-03T03:17:49;111.65;;;37.40;;
28774;SDS011;15926;51.348;6.596;2023-03-03T03:20:15;109.82;;;40.67;;
28774;SDS011;15926;51.348;6.596;2023-03-03T03:22:42;109.75;;;38.80;;
28774;SDS011;15926;51.348;6.596;2023-03-03T03:25:08;104.85;;;37.65;;
28774;SDS011;15926;51.348;6.596;2023-03-03T03:27:34;96.18;;;34.85;;
28774;SDS011;15926;51.348;6.596;2023-03-03T03:30:00;98.35;;;35.97;;
28774;SDS011;15926;51.348;6.596;2023-03-03T03:32:26;95.90;;;35.30;;
28774;SDS011;15926;51.348;6.596;2023-03-03T03:34:52;89.43;;;34.72;;
28774;SDS011;15926;51.348;6.596;2023-03-03T03:37:18;96.40;;;36.65;;
28774;SDS011;15926;51.348;6.596;2023-03-03T03:39:44;94.53;;;33.95;;
28774;SDS011;15926;51.348;6.596;2023-03-03T03:42:10;104.10;;;36.20;;
28774;SDS011;15926;51.348;6.596;2023-03-03T03:44:36;109.55;;;38.72;;
28774;SDS011;15926;51.348;6.596;2023-03-03T03:47:02;107.80;;;39.30;;
28774;SDS011;15926;51.348;6.596;2023-03-03T03:49:28;114.13;;;39.55;;
28774;SDS011;15926;51.348;6.596;2023-03-03T03:51:54;108.93;;;37.67;;
28774;SDS011;15926;51.348;6.596;2023-03-03T03:54:20;118.72;;;39.80;;
28774;SDS011;15926;51.348;6.596;2023-03-03T03:56:46;115.72;;;40.03;;
28774;SDS011;15926;51.348;6.596;2023-03-03T03:59:12;115.38;;;39.30;;
28774;SDS011;15926;51.348;6.596;2023-03-03T04:01:38;117.53;;;39.20;;
28774;SDS011;15926;51.348;6.596;2023-03-03T04:04:04;118.47;;;41.25;;
28774;SDS011;15926;51.348;6.596;2023-03-03T04:06:30;112.28;;;40.75;;
28774;SDS011;15926;51.348;6.596;2023-03-03T04:08:56;125.30;;;40.97;;
28774;SDS011;15926;51.348;6.596;2023-03-03T04:11:22;113.60;;;42.08;;
28774;SDS011;15926;51.348;6.596;2023-03-03T04:13:48;104.32;;;40.10;;
28774;SDS011;15926;51.348;6.596;2023-03-03T04:16:14;109.32;;;37.92;;
28774;SDS011;15926;51.348;6.596;2023-03-03T04:18:40;96.68;;;32.67;;
28774;SDS011;15926;51.348;6.596;2023-03-03T04:21:10;106.50;;;35.63;;
28774;SDS011;15926;51.348;6.596;2023-03-03T04:23:36;111.28;;;36.28;;
28774;SDS011;15926;51.348;6.596;2023-03-03T04:26:02;106.95;;;35.05;;
28774;SDS011;15926;51.348;6.596;2023-03-03T04:28:28;112.40;;;35.38;;
28774;SDS011;15926;51.348;6.596;2023-03-03T04:30:54;101.95;;;35.80;;
28774;SDS011;15926;51.348;6.596;2023-03-03T04:33:20;112.53;;;36.17;;
28774;SDS011;15926;51.348;6.596;2023-03-03T04:35:46;107.75;;;35.92;;
28774;SDS011;15926;51.348;6.596;2023-03-03T04:38:12;102.78;;;36.40;;
28774;SDS011;15926;51.348;6.596;2023-03-03T04:40:41;105.30;;;37.00;;
28774;SDS011;15926;51.348;6.596;2023-03-03T04:43:08;110.00;;;35.65;;
28774;SDS011;15926;51.348;6.596;2023-03-03T04:45:35;98.15;;;32.58;;
28774;SDS011;15926;51.348;6.596;2023-03-03T04:48:01;92.95;;;29.33;;
28774;SDS011;15926;51.348;6.596;2023-03-03T04:50:27;124.03;;;38.13;;
28774;SDS011;15926;51.348;6.596;2023-03-03T04:52:53;112.03;;;39.05;;
28774;SDS011;15926;51.348;6.596;2023-03-03T04:55:19;114.72;;;37.80;;
28774;SDS011;15926;51.348;6.596;2023-03-03T04:57:45;117.68;;;38.47;;
28774;SDS011;15926;51.348;6.596;2023-03-03T05:00:11;107.38;;;34.97;;
28774;SDS011;15926;51.348;6.596;2023-03-03T05:02:38;103.25;;;32.38;;
28774;SDS011;15926;51.348;6.596;2023-03-03T05:05:05;93.43;;;31.50;;
28774;SDS011;15926;51.348;6.596;2023-03-03T05:07:31;92.90;;;31.55;;
28774;SDS011;15926;51.348;6.596;2023-03-03T05:09:57;98.30;;;31.90;;
28774;SDS011;15926;51.348;6.596;2023-03-03T05:12:23;107.28;;;32.80;;
28774;SDS011;15926;51.348;6.596;2023-03-03T05:14:49;110.63;;;36.78;;
28774;SDS011;15926;51.348;6.596;2023-03-03T05:17:15;108.10;;;37.38;;
28774;SDS011;15926;51.348;6.596;2023-03-03T05:19:41;124.68;;;38.08;;
28774;SDS011;15926;51.348;6.596;2023-03-03T05:22:07;116.13;;;38.08;;
28774;SDS011;15926;51.348;6.596;2023-03-03T05:24:34;105.85;;;34.90;;
28774;SDS011;15926;51.348;6.596;2023-03-03T05:27:00;114.63;;;35.45;;
28774;SDS011;15926;51.348;6.596;2023-03-03T05:29:27;117.45;;;36.33;;
28774;SDS011;15926;51.348;6.596;2023-03-03T05:31:55;98.50;;;31.35;;
28774;SDS011;15926;51.348;6.596;2023-03-03T05:34:21;99.30;;;31.77;;
28774;SDS011;15926;51.348;6.596;2023-03-03T05:36:47;96.28;;;31.80;;
28774;SDS011;15926;51.348;6.596;2023-03-03T05:39:13;87.13;;;29.48;;
28774;SDS011;15926;51.348;6.596;2023-03-03T05:41:39;92.10;;;31.50;;
28774;SDS011;15926;51.348;6.596;2023-03-03T05:44:05;89.10;;;30.60;;
28774;SDS011;15926;51.348;6.596;2023-03-03T05:46:31;99.57;;;31.42;;
28774;SDS011;15926;51.348;6.596;2023-03-03T05:48:57;101.55;;;29.92;;
28774;SDS011;15926;51.348;6.596;2023-03-03T05:51:23;105.60;;;29.90;;
28774;SDS011;15926;51.348;6.596;2023-03-03T05:53:49;97.25;;;30.88;;
28774;SDS011;15926;51.348;6.596;2023-03-03T05:56:15;108.22;;;29.77;;
28774;SDS011;15926;51.348;6.596;2023-03-03T05:58:41;87.55;;;29.65;;
28774;SDS011;15926;51.348;6.596;2023-03-03T06:01:07;99.93;;;28.70;;
28774;SDS011;15926;51.348;6.596;2023-03-03T06:03:33;94.70;;;28.25;;
28774;SDS011;15926;51.348;6.596;2023-03-03T06:05:59;90.53;;;29.60;;
28774;SDS011;15926;51.348;6.596;2023-03-03T06:08:25;103.72;;;31.10;;
28774;SDS011;15926;51.348;6.596;2023-03-03T06:10:51;101.30;;;31.23;;
28774;SDS011;15926;51.348;6.596;2023-03-03T06:13:18;113.32;;;34.47;;
28774;SDS011;15926;51.348;6.596;2023-03-03T06:15:43;107.97;;;33.50;;
28774;SDS011;15926;51.348;6.596;2023-03-03T06:18:09;111.13;;;33.90;;
28774;SDS011;15926;51.348;6.596;2023-03-03T06:20:36;107.88;;;33.03;;
28774;SDS011;15926;51.348;6.596;2023-03-03T06:23:02;105.78;;;32.97;;
28774;SDS011;15926;51.348;6.596;2023-03-03T06:25:29;110.32;;;32.08;;
28774;SDS011;15926;51.348;6.596;2023-03-03T06:27:55;118.45;;;34.65;;
28774;SDS011;15926;51.348;6.596;2023-03-03T06:30:21;108.47;;;33.45;;
28774;SDS011;15926;51.348;6.596;2023-03-03T06:32:47;110.32;;;34.65;;
28774;SDS011;15926;51.348;6.596;2023-03-03T06:35:13;101.18;;;31.33;;
28774;SDS011;15926;51.348;6.596;2023-03-03T06:37:39;99.10;;;32.55;;
28774;SDS011;15926;51.348;6.596;2023-03-03T06:40:05;99.90;;;32.42;;
28774;SDS011;15926;51.348;6.596;2023-03-03T06:42:31;96.70;;;30.85;;
28774;SDS011;15926;51.348;6.596;2023-03-03T06:44:57;100.63;;;32.78;;
28774;SDS011;15926;51.348;6.596;2023-03-03T06:47:23;101.60;;;33.45;;
28774;SDS011;15926;51.348;6.596;2023-03-03T06:49:49;106.97;;;35.15;;
28774;SDS011;15926;51.348;6.596;2023-03-03T06:52:22;114.60;;;36.28;;
28774;SDS011;15926;51.348;6.596;2023-03-03T06:54:49;112.43;;;37.20;;
28774;SDS011;15926;51.348;6.596;2023-03-03T06:59:44;105.07;;;33.65;;
28774;SDS011;15926;51.348;6.596;2023-03-03T07:02:15;106.28;;;34.10;;
28774;SDS011;15926;51.348;6.596;2023-03-03T07:04:41;98.47;;;31.23;;
28774;SDS011;15926;51.348;6.596;2023-03-03T07:07:20;106.15;;;33.33;;
28774;SDS011;15926;51.348;6.596;2023-03-03T07:09:55;109.72;;;33.50;;
28774;SDS011;15926;51.348;6.596;2023-03-03T07:12:25;102.00;;;34.50;;
28774;SDS011;15926;51.348;6.596;2023-03-03T07:14:58;100.65;;;35.60;;
28774;SDS011;15926;51.348;6.596;2023-03-03T07:17:26;102.15;;;37.13;;
28774;SDS011;15926;51.348;6.596;2023-03-03T07:19:52;109.57;;;36.20;;
28774;SDS011;15926;51.348;6.596;2023-03-03T07:22:19;100.30;;;32.20;;
28774;SDS011;15926;51.348;6.596;2023-03-03T07:24:53;104.07;;;32.55;;
28774;SDS011;15926;51.348;6.596;2023-03-03T07:27:26;96.60;;;31.27;;
28774;SDS011;15926;51.348;6.596;2023-03-03T07:29:53;103.95;;;33.15;;
28774;SDS011;15926;51.348;6.596;2023-03-03T07:32:26;106.60;;;33.42;;
28774;SDS011;15926;51.348;6.596;2023-03-03T07:34:54;108.72;;;35.25;;
28774;SDS011;15926;51.348;6.596;2023-03-03T07:37:26;111.38;;;37.45;;
28774;SDS011;15926;51.348;6.596;2023-03-03T07:39:53;103.22;;;34.88;;
28774;SDS011;15926;51.348;6.596;2023-03-03T07:42:21;107.03;;;33.72;;
28774;SDS011;15926;51.348;6.596;2023-03-03T07:44:49;102.57;;;32.95;;
28774;SDS011;15926;51.348;6.596;2023-03-03T07:47:35;98.45;;;31.85;;
28774;SDS011;15926;51.348;6.596;2023-03-03T07:50:34;97.97;;;30.00;;
28774;SDS011;15926;51.348;6.596;2023-03-03T07:52:55;97.45;;;32.17;;
28774;SDS011;15926;51.348;6.596;2023-03-03T07:57:47;98.97;;;34.60;;
28774;SDS011;15926;51.348;6.596;2023-03-03T08:07:50;99.88;;;32.13;;
28774;SDS011;15926;51.348;6.596;2023-03-03T08:13:04;89.72;;;30.50;;
28774;SDS011;15926;51.348;6.596;2023-03-03T08:15:35;87.22;;;29.17;;
28774;SDS011;15926;51.348;6.596;2023-03-03T08:18:07;85.78;;;30.40;;
28774;SDS011;15926;51.348;6.596;2023-03-03T08:20:43;89.50;;;28.73;;
28774;SDS011;15926;51.348;6.596;2023-03-03T08:23:10;85.90;;;27.75;;
28774;SDS011;15926;51.348;6.596;2023-03-03T08:25:36;91.18;;;31.63;;
28774;SDS011;15926;51.348;6.596;2023-03-03T08:28:02;84.78;;;30.42;;
28774;SDS011;15926;51.348;6.596;2023-03-03T08:30:28;92.75;;;30.80;;
28774;SDS011;15926;51.348;6.596;2023-03-03T08:32:55;96.60;;;32.28;;
28774;SDS011;15926;51.348;6.596;2023-03-03T08:35:22;101.03;;;34.38;;
28774;SDS011;15926;51.348;6.596;2023-03-03T08:37:48;104.07;;;36.88;;
28774;SDS011;15926;51.348;6.596;2023-03-03T08:40:14;114.10;;;38.88;;
28774;SDS011;15926;51.348;6.596;2023-03-03T08:42:40;108.75;;;39.10;;
28774;SDS011;15926;51.348;6.596;2023-03-03T08:45:06;114.82;;;38.03;;
28774;SDS011;15926;51.348;6.596;2023-03-03T08:47:32;115.20;;;38.85;;
28774;SDS011;15926;51.348;6.596;2023-03-03T08:49:58;112.68;;;38.47;;
28774;SDS011;15926;51.348;6.596;2023-03-03T08:52:24;107.28;;;36.20;;
28774;SDS011;15926;51.348;6.596;2023-03-03T08:54:50;114.70;;;37.70;;
28774;SDS011;15926;51.348;6.596;2023-03-03T08:57:16;114.22;;;37.60;;
28774;SDS011;15926;51.348;6.596;2023-03-03T08:59:42;100.85;;;36.30;;
28774;SDS011;15926;51.348;6.596;2023-03-03T09:02:11;103.80;;;35.05;;
28774;SDS011;15926;51.348;6.596;2023-03-03T09:04:37;95.07;;;33.38;;
28774;SDS011;15926;51.348;6.596;2023-03-03T09:07:03;98.78;;;34.40;;
28774;SDS011;15926;51.348;6.596;2023-03-03T09:09:29;98.85;;;35.13;;
28774;SDS011;15926;51.348;6.596;2023-03-03T09:12:01;91.63;;;31.98;;
28774;SDS011;15926;51.348;6.596;2023-03-03T09:14:29;109.03;;;35.92;;
28774;SDS011;15926;51.348;6.596;2023-03-03T09:16:55;115.25;;;37.70;;
28774;SDS011;15926;51.348;6.596;2023-03-03T09:19:29;122.30;;;39.83;;
28774;SDS011;15926;51.348;6.596;2023-03-03T09:22:18;109.03;;;39.15;;
28774;SDS011;15926;51.348;6.596;2023-03-03T09:24:42;100.15;;;35.75;;
28774;SDS011;15926;51.348;6.596;2023-03-03T09:27:27;115.70;;;37.47;;
28774;SDS011;15926;51.348;6.596;2023-03-03T09:29:54;108.65;;;39.13;;
28774;SDS011;15926;51.348;6.596;2023-03-03T09:32:26;106.38;;;38.88;;
28774;SDS011;15926;51.348;6.596;2023-03-03T09:34:55;117.85;;;40.90;;
28774;SDS011;15926;51.348;6.596;2023-03-03T09:37:22;117.00;;;38.42;;
28774;SDS011;15926;51.348;6.596;2023-03-03T09:39:49;97.78;;;37.17;;
28774;SDS011;15926;51.348;6.596;2023-03-03T09:50:07;99.25;;;32.88;;
28774;SDS011;15926;51.348;6.596;2023-03-03T10:00:32;94.10;;;32.05;;
28774;SDS011;15926;51.348;6.596;2023-03-03T10:05:36;84.45;;;32.38;;
28774;SDS011;15926;51.348;6.596;2023-03-03T10:10:52;86.72;;;31.70;;
28774;SDS011;15926;51.348;6.596;2023-03-03T10:13:34;90.32;;;31.23;;
28774;SDS011;15926;51.348;6.596;2023-03-03T10:16:09;90.88;;;33.05;;
28774;SDS011;15926;51.348;6.596;2023-03-03T10:18:40;88.47;;;33.00;;
28774;SDS011;15926;51.348;6.596;2023-03-03T10:21:16;88.90;;;33.15;;
28774;SDS011;15926;51.348;6.596;2023-03-03T10:24:00;93.45;;;32.95;;
28774;SDS011;15926;51.348;6.596;2023-03-03T10:34:31;98.50;;;35.28;;
28774;SDS011;15926;51.348;6.596;2023-03-03T10:37:12;96.68;;;36.35;;
28774;SDS011;15926;51.348;6.596;2023-03-03T10:42:42;105.20;;;35.83;;
28774;SDS011;15926;51.348;6.596;2023-03-03T10:45:14;91.07;;;33.88;;
28774;SDS011;15926;51.348;6.596;2023-03-03T10:50:20;94.82;;;33.00;;
28774;SDS011;15926;51.348;6.596;2023-03-03T11:08:08;85.28;;;31.15;;
28774;SDS011;15926;51.348;6.596;2023-03-03T11:18:43;78.05;;;29.63;;
28774;SDS011;15926;51.348;6.596;2023-03-03T11:23:43;74.75;;;29.88;;
28774;SDS011;15926;51.348;6.596;2023-03-03T11:31:46;80.18;;;29.10;;
28774;SDS011;15926;51.348;6.596;2023-03-03T11:36:56;79.95;;;29.48;;
28774;SDS011;15926;51.348;6.596;2023-03-03T11:39:23;83.35;;;31.98;;
28774;SDS011;15926;51.348;6.596;2023-03-03T11:41:56;85.05;;;32.05;;
28774;SDS011;15926;51.348;6.596;2023-03-03T11:47:03;92.07;;;31.63;;
28774;SDS011;15926;51.348;6.596;2023-03-03T11:49:46;86.50;;;32.20;;
28774;SDS011;15926;51.348;6.596;2023-03-03T11:54:45;77.20;;;31.58;;
28774;SDS011;15926;51.348;6.596;2023-03-03T12:00:04;88.85;;;32.13;;
28774;SDS011;15926;51.348;6.596;2023-03-03T12:02:49;81.35;;;30.88;;
28774;SDS011;15926;51.348;6.596;2023-03-03T12:10:32;81.72;;;31.88;;
28774;SDS011;15926;51.348;6.596;2023-03-03T12:13:04;88.90;;;35.25;;
28774;SDS011;15926;51.348;6.596;2023-03-03T12:16:33;93.68;;;35.50;;
28774;SDS011;15926;51.348;6.596;2023-03-03T12:26:19;76.63;;;30.95;;
28774;SDS011;15926;51.348;6.596;2023-03-03T12:28:54;80.97;;;31.73;;
28774;SDS011;15926;51.348;6.596;2023-03-03T12:32:11;76.43;;;30.67;;
28774;SDS011;15926;51.348;6.596;2023-03-03T12:34:17;78.20;;;29.75;;
28774;SDS011;15926;51.348;6.596;2023-03-03T12:39:24;84.72;;;32.25;;
28774;SDS011;15926;51.348;6.596;2023-03-03T12:47:39;78.53;;;31.67;;
28774;SDS011;15926;51.348;6.596;2023-03-03T13:00:22;70.53;;;30.10;;
28774;SDS011;15926;51.348;6.596;2023-03-03T13:05:19;72.10;;;30.45;;
28774;SDS011;15926;51.348;6.596;2023-03-03T13:07:49;72.03;;;31.13;;
28774;SDS011;15926;51.348;6.596;2023-03-03T13:15:24;71.97;;;29.77;;
28774;SDS011;15926;51.348;6.596;2023-03-03T13:20:20;60.22;;;26.33;;
28774;SDS011;15926;51.348;6.596;2023-03-03T13:27:43;64.97;;;28.70;;
28774;SDS011;15926;51.348;6.596;2023-03-03T13:30:14;72.85;;;30.73;;
28774;SDS011;15926;51.348;6.596;2023-03-03T13:37:57;67.90;;;27.38;;
28774;SDS011;15926;51.348;6.596;2023-03-03T13:40:33;71.25;;;28.42;;
28774;SDS011;15926;51.348;6.596;2023-03-03T13:43:03;65.30;;;27.20;;
28774;SDS011;15926;51.348;6.596;2023-03-03T13:45:40;73.00;;;29.65;;
28774;SDS011;15926;51.348;6.596;2023-03-03T13:50:50;70.43;;;28.70;;
28774;SDS011;15926;51.348;6.596;2023-03-03T13:58:22;57.63;;;25.73;;
28774;SDS011;15926;51.348;6.596;2023-03-03T14:06:03;67.53;;;27.73;;
28774;SDS011;15926;51.348;6.596;2023-03-03T14:16:31;54.47;;;24.05;;
28774;SDS011;15926;51.348;6.596;2023-03-03T14:19:04;55.58;;;22.20;;
28774;SDS011;15926;51.348;6.596;2023-03-03T14:21:34;52.95;;;22.98;;
28774;SDS011;15926;51.348;6.596;2023-03-03T14:24:06;55.88;;;22.83;;
28774;SDS011;15926;51.348;6.596;2023-03-03T14:26:50;54.20;;;23.20;;
28774;SDS011;15926;51.348;6.596;2023-03-03T14:31:52;50.20;;;21.27;;
28774;SDS011;15926;51.348;6.596;2023-03-03T14:36:47;44.42;;;19.13;;
28774;SDS011;15926;51.348;6.596;2023-03-03T14:41:58;47.45;;;19.55;;
28774;SDS011;15926;51.348;6.596;2023-03-03T14:44:46;42.72;;;18.60;;
28774;SDS011;15926;51.348;6.596;2023-03-03T14:47:21;47.03;;;18.70;;
28774;SDS011;15926;51.348;6.596;2023-03-03T14:49:48;47.08;;;19.13;;
28774;SDS011;15926;51.348;6.596;2023-03-03T14:54:41;37.35;;;17.05;;
28774;SDS011;15926;51.348;6.596;2023-03-03T14:57:15;39.53;;;16.85;;
28774;SDS011;15926;51.348;6.596;2023-03-03T15:02:26;37.40;;;15.85;;
28774;SDS011;15926;51.348;6.596;2023-03-03T15:05:07;33.30;;;15.60;;
28774;SDS011;15926;51.348;6.596;2023-03-03T15:07:36;33.33;;;14.35;;
28774;SDS011;15926;51.348;6.596;2023-03-03T15:10:04;31.20;;;13.85;;
28774;SDS011;15926;51.348;6.596;2023-03-03T15:15:19;31.25;;;12.38;;
28774;SDS011;15926;51.348;6.596;2023-03-03T15:17:52;29.00;;;13.32;;
28774;SDS011;15926;51.348;6.596;2023-03-03T15:20:36;27.38;;;11.55;;
28774;SDS011;15926;51.348;6.596;2023-03-03T15:25:38;29.63;;;12.20;;
28774;SDS011;15926;51.348;6.596;2023-03-03T15:33:49;22.38;;;9.13;;
28774;SDS011;15926;51.348;6.596;2023-03-03T15:44:20;28.70;;;9.65;;
28774;SDS011;15926;51.348;6.596;2023-03-03T15:46:52;22.33;;;8.38;;
28774;SDS011;15926;51.348;6.596;2023-03-03T15:54:27;20.42;;;8.15;;
28774;SDS011;15926;51.348;6.596;2023-03-03T15:56:57;23.80;;;9.05;;
28774;SDS011;15926;51.348;6.596;2023-03-03T16:04:47;20.38;;;8.88;;
28774;SDS011;15926;51.348;6.596;2023-03-03T16:17:45;23.55;;;10.30;;
28774;SDS011;15926;51.348;6.596;2023-03-03T16:20:11;20.83;;;9.48;;
28774;SDS011;15926;51.348;6.596;2023-03-03T16:27:54;25.88;;;10.30;;
28774;SDS011;15926;51.348;6.596;2023-03-03T16:30:24;24.75;;;10.30;;
28774;SDS011;15926;51.348;6.596;2023-03-03T16:32:59;23.67;;;9.73;;
28774;SDS011;15926;51.348;6.596;2023-03-03T16:35:35;19.45;;;9.30;;
28774;SDS011;15926;51.348;6.596;2023-03-03T16:38:05;18.13;;;8.40;;
28774;SDS011;15926;51.348;6.596;2023-03-03T16:40:41;20.90;;;10.40;;
28774;SDS011;15926;51.348;6.596;2023-03-03T16:45:45;19.70;;;9.60;;
28774;SDS011;15926;51.348;6.596;2023-03-03T16:48:13;20.08;;;10.07;;
28774;SDS011;15926;51.348;6.596;2023-03-03T16:50:45;23.30;;;9.85;;
28774;SDS011;15926;51.348;6.596;2023-03-03T17:09:43;20.75;;;9.80;;
28774;SDS011;15926;51.348;6.596;2023-03-03T17:14:38;20.42;;;9.68;;
28774;SDS011;15926;51.348;6.596;2023-03-03T17:27:15;22.77;;;10.48;;
28774;SDS011;15926;51.348;6.596;2023-03-03T17:29:49;20.20;;;9.02;;
28774;SDS011;15926;51.348;6.596;2023-03-03T17:42:07;26.58;;;10.68;;
28774;SDS011;15926;51.348;6.596;2023-03-03T17:44:36;21.65;;;10.13;;
28774;SDS011;15926;51.348;6.596;2023-03-03T17:47:07;20.15;;;10.15;;
28774;SDS011;15926;51.348;6.596;2023-03-03T18:02:41;21.15;;;9.40;;
28774;SDS011;15926;51.348;6.596;2023-03-03T18:05:25;28.40;;;11.15;;
28774;SDS011;15926;51.348;6.596;2023-03-03T18:10:34;22.92;;;9.90;;
28774;SDS011;15926;51.348;6.596;2023-03-03T18:25:57;27.38;;;11.32;;
28774;SDS011;15926;51.348;6.596;2023-03-03T18:31:25;24.70;;;11.35;;
28774;SDS011;15926;51.348;6.596;2023-03-03T18:38:53;25.15;;;11.48;;
28774;SDS011;15926;51.348;6.596;2023-03-03T18:41:27;22.02;;;11.60;;
28774;SDS011;15926;51.348;6.596;2023-03-03T18:44:00;32.05;;;12.23;;
28774;SDS011;15926;51.348;6.596;2023-03-03T18:59:09;27.35;;;11.50;;
28774;SDS011;15926;51.348;6.596;2023-03-03T19:01:39;32.28;;;12.18;;
28774;SDS011;15926;51.348;6.596;2023-03-03T19:09:08;31.10;;;13.63;;
28774;SDS011;15926;51.348;6.596;2023-03-03T19:11:39;38.75;;;14.63;;
28774;SDS011;15926;51.348;6.596;2023-03-03T19:16:51;33.38;;;14.18;;
28774;SDS011;15926;51.348;6.596;2023-03-03T19:19:22;33.72;;;14.93;;
28774;SDS011;15926;51.348;6.596;2023-03-03T19:21:50;32.80;;;14.35;;
28774;SDS011;15926;51.348;6.596;2023-03-03T19:29:37;31.35;;;14.10;;
28774;SDS011;15926;51.348;6.596;2023-03-03T19:34:45;23.80;;;12.57;;
28774;SDS011;15926;51.348;6.596;2023-03-03T19:47:45;27.50;;;13.15;;
28774;SDS011;15926;51.348;6.596;2023-03-03T19:58:28;29.67;;;12.43;;
28774;SDS011;15926;51.348;6.596;2023-03-03T20:09:18;24.83;;;11.73;;
28774;SDS011;15926;51.348;6.596;2023-03-03T20:17:03;26.45;;;11.95;;
28774;SDS011;15926;51.348;6.596;2023-03-03T20:19:49;25.48;;;11.93;;
28774;SDS011;15926;51.348;6.596;2023-03-03T20:25:05;25.05;;;11.82;;
28774;SDS011;15926;51.348;6.596;2023-03-03T20:30:23;24.17;;;10.00;;
28774;SDS011;15926;51.348;6.596;2023-03-03T20:33:05;22.13;;;10.23;;
28774;SDS011;15926;51.348;6.596;2023-03-03T20:46:28;22.00;;;9.95;;
28774;SDS011;15926;51.348;6.596;2023-03-03T20:51:36;16.85;;;8.27;;
28774;SDS011;15926;51.348;6.596;2023-03-03T21:06:43;17.65;;;9.43;;
28774;SDS011;15926;51.348;6.596;2023-03-03T21:09:31;16.90;;;8.65;;
28774;SDS011;15926;51.348;6.596;2023-03-03T21:11:56;21.25;;;9.95;;
28774;SDS011;15926;51.348;6.596;2023-03-03T21:14:26;16.70;;;8.98;;
28774;SDS011;15926;51.348;6.596;2023-03-03T21:16:54;18.80;;;9.25;;
28774;SDS011;15926;51.348;6.596;2023-03-03T21:24:15;22.75;;;8.85;;